Terminal Aerodrome Forecast
Issued by NWS Austin/San Antonio, TX

Home | Current Version | Previous Version | Text Only | Print | Product List | Glossary On
Versions: 1 2 3 4 5 6 7 8 9 10 11
848
FTUS44 KEWX 120524
TAFSAT
TAF
KSAT 120524Z 1206/1312 16008KT P6SM FEW250
     FM121000 VRB03KT 4SM BR FEW005
      TEMPO 1212/1215 BKN006
     FM121600 11005KT P6SM FEW250
     FM130800 02006KT P6SM BKN015=

USA.gov is the U.S. government's official web portal to all federal, state and local government web resources and services.